createdAt,value
2023-05-10T00:01:14.522Z,71.20
2023-05-10T00:06:18.797Z,71.10
2023-05-10T00:11:23.144Z,62.90
2023-05-10T00:16:26.159Z,61.50
2023-05-10T00:21:30.391Z,58.50
2023-05-10T00:26:33.295Z,54.33
2023-05-10T00:31:36.713Z,50.35
2023-05-10T00:36:40.951Z,51.83
2023-05-10T00:41:43.814Z,48.55
2023-05-10T00:46:46.957Z,46.55
2023-05-10T00:51:51.849Z,48.43
2023-05-10T00:56:54.618Z,40.03
2023-05-10T01:01:57.344Z,38.58
2023-05-10T01:07:02.166Z,36.95
2023-05-10T01:12:07.880Z,34.20
2023-05-10T01:17:12.062Z,34.65
2023-05-10T01:22:33.190Z,33.58
2023-05-10T01:28:10.258Z,35.05
2023-05-10T01:33:18.247Z,41.47
2023-05-10T01:38:25.030Z,41.20
2023-05-10T01:43:31.018Z,44.87
2023-05-10T01:48:35.702Z,45.70
2023-05-10T01:53:39.429Z,38.83
2023-05-10T01:58:44.910Z,32.25
2023-05-10T02:03:50.090Z,33.77
2023-05-10T02:08:54.437Z,34.05
2023-05-10T02:13:57.447Z,31.02
2023-05-10T02:19:05.867Z,31.37
2023-05-10T02:24:09.593Z,31.95
2023-05-10T02:29:13.791Z,29.85
2023-05-10T02:34:18.076Z,30.23
2023-05-10T02:39:23.188Z,27.33
2023-05-10T02:44:27.253Z,27.50
2023-05-10T02:49:31.471Z,22.45
2023-05-10T02:54:35.603Z,21.50
2023-05-10T02:59:38.487Z,19.50
2023-05-10T03:04:42.656Z,19.20
2023-05-10T03:09:46.185Z,20.15
2023-05-10T03:14:55.982Z,20.20
2023-05-10T03:20:00.986Z,21.20
2023-05-10T03:25:08.051Z,21.50
2023-05-10T03:30:13.283Z,21.33
2023-05-10T03:35:17.783Z,20.75
2023-05-10T03:40:21.110Z,18.70
2023-05-10T03:45:24.182Z,18.52
2023-05-10T03:50:28.637Z,18.75
2023-05-10T03:55:35.488Z,18.88
2023-05-10T04:00:38.618Z,19.42
2023-05-10T04:05:42.860Z,20.33
2023-05-10T04:10:45.926Z,22.85
2023-05-10T04:15:48.679Z,21.77
2023-05-10T04:20:52.790Z,23.92
2023-05-10T04:26:01.522Z,28.23
2023-05-10T04:31:05.120Z,30.00
2023-05-10T04:36:09.856Z,31.23
2023-05-10T04:41:12.983Z,31.60
2023-05-10T04:46:15.796Z,32.53
2023-05-10T04:51:19.955Z,34.22
2023-05-10T04:56:22.967Z,34.10
2023-05-10T05:01:25.806Z,35.83
2023-05-10T05:06:30.048Z,34.60
2023-05-10T05:11:32.876Z,36.05
2023-05-10T05:16:35.770Z,36.00
2023-05-10T05:21:40.088Z,35.35
2023-05-10T05:26:42.865Z,36.83
2023-05-10T05:31:45.758Z,38.40
2023-05-10T05:36:49.942Z,38.30
2023-05-10T05:41:52.829Z,34.60
2023-05-10T05:46:55.705Z,34.23
2023-05-10T05:52:02.509Z,35.13
2023-05-10T05:57:05.675Z,34.42
2023-05-10T06:02:08.426Z,37.40
2023-05-10T06:07:12.635Z,32.43
2023-05-10T06:12:15.487Z,34.90
2023-05-10T06:17:19.098Z,34.70
2023-05-10T06:22:23.769Z,34.88
2023-05-10T06:27:26.951Z,31.30
2023-05-10T06:32:29.945Z,30.80
2023-05-10T06:37:34.198Z,31.03
2023-05-10T06:42:37.105Z,29.63
2023-05-10T06:47:40.053Z,28.20
2023-05-10T06:52:44.723Z,28.98
2023-05-10T06:57:48.674Z,29.93
2023-05-10T07:02:52.182Z,29.43
2023-05-10T07:07:56.537Z,30.00
2023-05-10T07:12:59.496Z,28.23
2023-05-10T07:18:02.704Z,31.27
2023-05-10T07:23:07.043Z,30.80
2023-05-10T07:28:09.958Z,32.13
2023-05-10T07:33:16.707Z,33.63
2023-05-10T07:38:21.059Z,31.45
2023-05-10T07:43:24.071Z,31.00
2023-05-10T07:48:27.051Z,30.70
2023-05-10T07:53:31.360Z,29.67
2023-05-10T07:58:34.309Z,30.33
2023-05-10T08:03:37.345Z,29.50
2023-05-10T08:08:41.631Z,28.65
2023-05-10T08:13:44.578Z,26.33
2023-05-10T08:18:48.475Z,26.70
2023-05-10T08:23:52.824Z,27.37
2023-05-10T08:28:55.761Z,24.27
2023-05-10T08:33:58.615Z,22.55
2023-05-10T08:39:03.321Z,21.92
2023-05-10T08:44:07.099Z,17.60
2023-05-10T08:49:10.608Z,18.55
2023-05-10T08:54:15.129Z,17.97
2023-05-10T08:59:18.086Z,17.17
2023-05-10T09:04:21.547Z,17.95
2023-05-10T09:09:26.410Z,17.77
2023-05-10T09:14:29.832Z,19.85
2023-05-10T09:19:48.220Z,18.45
2023-05-10T09:25:05.867Z,17.83
2023-05-10T09:30:10.082Z,18.40
2023-05-10T09:35:16.146Z,16.65
2023-05-10T09:40:20.309Z,16.27
2023-05-10T09:45:23.641Z,15.52
2023-05-10T09:50:28.662Z,13.02
2023-05-10T09:55:41.285Z,12.93
2023-05-10T10:00:45.556Z,15.35
2023-05-10T10:05:51.221Z,15.75
2023-05-10T10:10:54.092Z,15.23
2023-05-10T10:15:57.097Z,16.73
2023-05-10T10:21:01.766Z,13.77
2023-05-10T10:26:05.321Z,15.40
2023-05-10T10:31:17.652Z,13.77
2023-05-10T10:36:23.126Z,13.52
2023-05-10T10:41:30.360Z,13.70
2023-05-10T10:46:33.188Z,13.90
2023-05-10T10:51:39.760Z,14.23
2023-05-10T10:56:42.775Z,13.73
2023-05-10T11:01:46.107Z,12.77
2023-05-10T11:06:50.321Z,11.90
2023-05-10T11:11:55.944Z,11.70
2023-05-10T11:17:01.729Z,11.37
2023-05-10T11:22:15.526Z,15.32
2023-05-10T11:27:18.408Z,13.45
2023-05-10T11:32:21.847Z,12.80
2023-05-10T11:37:26.092Z,15.80
2023-05-10T11:42:29.923Z,15.10
2023-05-10T11:47:33.017Z,12.52
2023-05-10T11:52:39.327Z,13.17
2023-05-10T11:57:43.541Z,9.80
2023-05-10T12:02:46.519Z,8.98
2023-05-10T12:07:50.832Z,10.52
2023-05-10T12:12:54.332Z,7.28
2023-05-10T12:17:59.208Z,7.68
2023-05-10T12:23:04.780Z,7.05
2023-05-10T12:28:09.795Z,7.87
2023-05-10T12:33:15.918Z,7.22
2023-05-10T12:38:30.490Z,7.90
2023-05-10T12:43:34.014Z,6.07
2023-05-10T12:48:37.109Z,5.10
2023-05-10T12:53:43.483Z,6.40
2023-05-10T12:58:49.165Z,7.97
2023-05-10T13:03:52.168Z,8.23
2023-05-10T13:08:56.325Z,8.45
2023-05-10T13:13:59.347Z,6.72
2023-05-10T13:19:02.187Z,4.80
2023-05-10T13:24:06.708Z,3.80
2023-05-10T13:29:09.685Z,6.05
2023-05-10T13:34:12.504Z,4.33
2023-05-10T13:39:16.790Z,4.53
2023-05-10T13:44:19.827Z,7.05
2023-05-10T13:49:23.002Z,6.78
2023-05-10T13:54:30.409Z,7.75
2023-05-10T13:59:34.531Z,8.83
2023-05-10T14:04:37.411Z,9.83
2023-05-10T14:09:41.589Z,9.48
2023-05-10T14:14:44.388Z,9.70
2023-05-10T14:19:47.459Z,10.57
2023-05-10T14:24:51.700Z,8.98
2023-05-10T14:29:55.223Z,8.98
2023-05-10T14:34:58.021Z,8.73
2023-05-10T14:40:02.474Z,7.00
2023-05-10T14:45:06.285Z,5.60
2023-05-10T14:50:09.845Z,6.57
2023-05-10T14:55:14.038Z,7.82
2023-05-10T15:00:18.193Z,6.78
2023-05-10T15:05:21.559Z,7.00
2023-05-10T15:10:26.263Z,7.07
2023-05-10T15:15:29.115Z,6.47
2023-05-10T15:20:31.902Z,7.53
2023-05-10T15:25:38.249Z,7.00
2023-05-10T15:30:41.159Z,7.67
2023-05-10T15:35:43.903Z,6.55
2023-05-10T15:40:48.019Z,5.32
2023-05-10T15:45:51.392Z,9.65
2023-05-10T15:50:54.477Z,10.85
2023-05-10T15:55:58.772Z,11.57
2023-05-10T16:01:01.702Z,12.63
2023-05-10T16:06:04.809Z,12.13
2023-05-10T16:11:09.893Z,11.55
2023-05-10T16:16:12.741Z,12.02
2023-05-10T16:21:15.692Z,12.60
2023-05-10T16:26:19.879Z,11.88
2023-05-10T16:31:23.247Z,13.10
2023-05-10T16:36:26.269Z,12.13
2023-05-10T16:41:30.607Z,10.73
2023-05-10T16:46:34.216Z,9.63
2023-05-10T16:51:37.150Z,8.27
2023-05-10T16:56:41.401Z,9.02
2023-05-10T17:01:44.940Z,7.95
2023-05-10T17:06:47.817Z,7.80
2023-05-10T17:11:52.028Z,8.93
2023-05-10T17:16:55.606Z,7.25
2023-05-10T17:21:58.513Z,8.68
2023-05-10T17:27:03.676Z,8.30
2023-05-10T17:32:09.070Z,8.75
2023-05-10T17:37:12.079Z,7.88
2023-05-10T17:42:17.608Z,9.05
2023-05-10T17:47:20.717Z,9.30
2023-05-10T17:52:23.573Z,9.07
2023-05-10T17:57:28.213Z,8.97
2023-05-10T18:02:31.170Z,10.05
2023-05-10T18:07:34.050Z,9.38
2023-05-10T18:12:38.200Z,10.32
2023-05-10T18:17:41.301Z,9.88
2023-05-10T18:22:44.557Z,9.25
2023-05-10T18:27:48.894Z,10.25
2023-05-10T18:32:51.796Z,10.70
2023-05-10T18:37:54.698Z,9.83
2023-05-10T18:42:58.974Z,10.35
2023-05-10T18:48:01.913Z,10.63
2023-05-10T18:53:04.809Z,10.17
2023-05-10T18:58:09.175Z,9.50
2023-05-10T19:03:12.048Z,10.77
2023-05-10T19:08:15.014Z,10.48
2023-05-10T19:13:19.511Z,10.43
2023-05-10T19:18:22.533Z,11.23
2023-05-10T19:23:29.206Z,10.02
2023-05-10T19:28:34.997Z,11.65
2023-05-10T19:33:38.381Z,9.00
2023-05-10T19:38:41.603Z,9.65
2023-05-10T19:43:45.952Z,10.23
2023-05-10T19:48:48.849Z,12.30
2023-05-10T19:53:51.766Z,13.03
2023-05-10T19:58:56.039Z,10.07
2023-05-10T20:03:58.931Z,11.15
2023-05-10T20:09:01.750Z,9.98
2023-05-10T20:14:06.123Z,10.87
2023-05-10T20:19:09.097Z,10.68
2023-05-10T20:24:12.036Z,9.95
2023-05-10T20:29:16.489Z,11.07
2023-05-10T20:34:19.601Z,12.13
2023-05-10T20:39:22.466Z,12.37
2023-05-10T20:44:26.718Z,12.90
2023-05-10T20:49:29.666Z,13.80
2023-05-10T20:54:32.526Z,13.63
2023-05-10T20:59:37.074Z,12.25
2023-05-10T21:04:39.922Z,13.83
2023-05-10T21:09:42.681Z,13.07
2023-05-10T21:14:47.900Z,13.10
2023-05-10T21:19:51.527Z,10.95
2023-05-10T21:24:54.531Z,11.90
2023-05-10T21:29:59.298Z,13.00
2023-05-10T21:35:02.280Z,14.05
2023-05-10T21:40:05.998Z,15.68
2023-05-10T21:45:11.116Z,16.52
2023-05-10T21:50:14.005Z,17.17
2023-05-10T21:55:25.051Z,14.30
2023-05-10T22:00:31.245Z,12.40
2023-05-10T22:05:35.653Z,13.63
2023-05-10T22:10:38.496Z,14.60
2023-05-10T22:15:43.308Z,14.77
2023-05-10T22:20:46.542Z,12.38
2023-05-10T22:25:49.319Z,12.77
2023-05-10T22:30:53.694Z,13.25
2023-05-10T22:36:18.624Z,11.77
2023-05-10T22:41:23.140Z,10.75
2023-05-10T22:46:27.459Z,9.32
2023-05-10T22:51:30.327Z,9.93
2023-05-10T22:56:33.246Z,9.23
2023-05-10T23:01:37.506Z,9.37
2023-05-10T23:06:40.601Z,8.15
2023-05-10T23:11:43.492Z,8.25
2023-05-10T23:16:47.898Z,9.57
2023-05-10T23:21:50.730Z,8.57
2023-05-10T23:26:53.495Z,9.20
2023-05-10T23:31:57.792Z,8.90
2023-05-10T23:37:00.703Z,10.03
2023-05-10T23:42:03.534Z,10.00
2023-05-10T23:47:07.663Z,9.43
2023-05-10T23:52:10.817Z,10.27
2023-05-10T23:57:13.656Z,10.00
